Time;durP1;ratioP1;P1;durP2;ratioP2;P2;SDS_P1;SDS_P2;PMS_P1;PMS_P2;Temp;Humidity;BMP_temperature;BMP_pressure;BME280_temperature;BME280_humidity;BME280_pressure;Samples;Min_cycle;Max_cycle;Signal;HPM_P1;HPM_P2
2022/04/09 11:47:27;;;;;;;2.15;0.40;;;;;;;;;;5086289;28;20685;-69
2022/04/09 11:49:54;;;;;;;1.15;0.50;;;;;;;;;;5066855;28;20507;-70
2022/04/09 11:52:27;;;;;;;0.90;0.30;;;;;;;;;;5066495;28;20025;-67
2022/04/09 11:54:54;;;;;;;1.15;0.40;;;;;;;;;;5066664;28;20067;-68
2022/04/09 11:57:19;;;;;;;1.95;0.52;;;;;;;;;;5065407;28;20025;-71
2022/04/09 11:59:52;;;;;;;1.23;0.30;;;;;;;;;;5064996;28;20031;-68
2022/04/09 12:02:25;;;;;;;1.48;0.22;;;;;;;;;;5047522;28;20508;-69
2022/04/09 12:04:53;;;;;;;2.78;0.60;;;;;;;;;;5066577;28;20040;-69
2022/04/09 12:07:19;;;;;;;4.57;0.45;;;;;;;;;;5066515;28;20443;-69
2022/04/09 12:09:45;;;;;;;0.98;0.40;;;;;;;;;;5066215;28;20036;-70
2022/04/09 12:12:11;;;;;;;1.02;0.35;;;;;;;;;;5066398;28;20025;-70
2022/04/09 12:14:37;;;;;;;1.30;0.60;;;;;;;;;;5048446;28;20039;-70
2022/04/09 12:17:12;;;;;;;2.85;0.40;;;;;;;;;;5057839;28;20083;-70
2022/04/09 12:19:40;;;;;;;0.90;0.40;;;;;;;;;;5064694;28;20116;-73
2022/04/09 12:22:23;;;;;;;3.15;0.50;;;;;;;;;;5066219;28;20599;-71
2022/04/09 12:24:53;;;;;;;3.53;0.45;;;;;;;;;;5060486;28;20039;-70
2022/04/09 12:27:45;;;;;;;0.70;0.40;;;;;;;;;;5064203;28;20029;-70
2022/04/09 12:30:13;;;;;;;0.43;0.30;;;;;;;;;;5050189;28;20083;-70
2022/04/09 12:32:41;;;;;;;1.73;0.38;;;;;;;;;;5066052;28;20090;-71
2022/04/09 12:35:11;;;;;;;0.75;0.30;;;;;;;;;;5065749;28;20055;-69
2022/04/09 12:37:52;;;;;;;0.50;0.30;;;;;;;;;;5066298;28;20024;-71
2022/04/09 12:40:23;;;;;;;1.20;0.35;;;;;;;;;;5066349;28;20024;-74
2022/04/09 12:42:49;;;;;;;0.93;0.35;;;;;;;;;;5065819;28;20028;-71
2022/04/09 12:45:17;;;;;;;1.65;0.50;;;;;;;;;;5065829;28;20071;-71
2022/04/09 12:48:02;;;;;;;0.47;0.25;;;;;;;;;;5066002;28;20416;-72
2022/04/09 12:50:32;;;;;;;0.85;0.40;;;;;;;;;;5065882;28;20025;-74
2022/04/09 12:53:00;;;;;;;0.93;0.40;;;;;;;;;;5063766;28;20630;-70
2022/04/09 12:55:26;;;;;;;1.25;0.30;;;;;;;;;;5064995;28;20033;-69
2022/04/09 12:57:53;;;;;;;0.50;0.30;;;;;;;;;;5056153;28;20053;-70
2022/04/09 13:00:20;;;;;;;1.02;0.30;;;;;;;;;;5052779;28;20044;-70
2022/04/09 13:02:47;;;;;;;9.77;0.68;;;;;;;;;;5052183;28;20059;-70
2022/04/09 13:05:15;;;;;;;0.95;0.35;;;;;;;;;;5052427;28;20484;-70
2022/04/09 13:07:41;;;;;;;1.23;0.40;;;;;;;;;;5052193;28;20043;-71
2022/04/09 13:10:08;;;;;;;1.92;0.20;;;;;;;;;;5052552;28;20037;-70
2022/04/09 13:12:33;;;;;;;0.90;0.38;;;;;;;;;;5052364;28;20031;-69
2022/04/09 13:14:59;;;;;;;0.50;0.30;;;;;;;;;;5052491;28;20025;-69
2022/04/09 13:17:24;;;;;;;0.77;0.35;;;;;;;;;;5052383;28;20021;-70
2022/04/09 13:19:50;;;;;;;2.40;0.32;;;;;;;;;;5052533;28;20021;-68
2022/04/09 13:22:15;;;;;;;0.70;0.30;;;;;;;;;;5052013;28;20075;-73
2022/04/09 13:24:45;;;;;;;0.40;0.20;;;;;;;;;;5052066;28;20032;-69
2022/04/09 13:27:10;;;;;;;2.97;0.88;;;;;;;;;;5052009;28;20025;-69
2022/04/09 13:29:36;;;;;;;1.05;0.40;;;;;;;;;;5052480;28;20111;-70
2022/04/09 13:32:03;;;;;;;2.65;0.30;;;;;;;;;;5052054;28;20388;-70
2022/04/09 13:34:29;;;;;;;1.02;0.30;;;;;;;;;;5051939;28;20032;-69
2022/04/09 13:36:55;;;;;;;0.28;0.20;;;;;;;;;;5051886;28;20025;-72
2022/04/09 13:39:20;;;;;;;2.80;0.20;;;;;;;;;;5051598;28;20047;-71
2022/04/09 13:41:46;;;;;;;3.10;0.47;;;;;;;;;;5051825;28;20152;-70
2022/04/09 13:44:11;;;;;;;0.60;0.17;;;;;;;;;;5052005;28;20051;-70
2022/04/09 13:46:37;;;;;;;1.83;0.30;;;;;;;;;;5033815;28;20045;-70
2022/04/09 13:49:03;;;;;;;0.47;0.30;;;;;;;;;;5051900;28;20025;-70
2022/04/09 13:51:29;;;;;;;0.80;0.25;;;;;;;;;;5052046;28;20032;-73
2022/04/09 13:53:55;;;;;;;1.48;0.47;;;;;;;;;;5051542;28;20111;-72
2022/04/09 13:56:22;;;;;;;1.00;0.25;;;;;;;;;;5051521;28;20029;-74
2022/04/09 13:58:48;;;;;;;6.07;0.70;;;;;;;;;;5051532;28;20496;-72
2022/04/09 14:01:14;;;;;;;1.40;0.28;;;;;;;;;;5051334;28;20029;-75
2022/04/09 14:03:39;;;;;;;1.73;0.50;;;;;;;;;;5051615;28;20025;-74
2022/04/09 14:06:05;;;;;;;1.42;0.30;;;;;;;;;;5051629;28;20180;-74
2022/04/09 14:08:30;;;;;;;10.75;0.82;;;;;;;;;;5050762;28;20116;-73
2022/04/09 14:10:56;;;;;;;6.40;0.70;;;;;;;;;;5051035;28;20098;-73
2022/04/09 14:13:23;;;;;;;0.85;0.30;;;;;;;;;;5051141;28;20025;-74
2022/04/09 14:15:48;;;;;;;4.57;0.40;;;;;;;;;;5051197;28;20029;-73
2022/04/09 14:18:14;;;;;;;2.83;0.40;;;;;;;;;;5051467;28;20080;-73
2022/04/09 14:20:39;;;;;;;4.00;0.40;;;;;;;;;;5051304;28;20021;-73
2022/04/09 14:23:05;;;;;;;1.77;0.25;;;;;;;;;;5051293;28;20044;-73
2022/04/09 14:25:31;;;;;;;6.72;0.50;;;;;;;;;;5051061;28;20025;-72
2022/04/09 14:28:00;;;;;;;1.25;0.20;;;;;;;;;;5051309;28;20031;-73
2022/04/09 14:30:26;;;;;;;5.25;0.57;;;;;;;;;;5051124;28;20055;-73
2022/04/09 14:32:51;;;;;;;6.38;0.50;;;;;;;;;;5050534;28;20044;-73
2022/04/09 14:35:19;;;;;;;2.05;0.30;;;;;;;;;;5050729;28;20110;-72
2022/04/09 14:37:45;;;;;;;1.75;0.40;;;;;;;;;;5050759;28;20492;-72
2022/04/09 14:40:11;;;;;;;1.70;0.50;;;;;;;;;;5050722;28;20035;-73
2022/04/09 14:42:37;;;;;;;2.45;0.40;;;;;;;;;;5050729;28;20025;-70
2022/04/09 14:45:04;;;;;;;0.82;0.22;;;;;;;;;;5050641;28;20058;-70
2022/04/09 14:47:33;;;;;;;1.50;0.40;;;;;;;;;;5048864;28;20036;-73
2022/04/09 14:49:58;;;;;;;2.13;0.30;;;;;;;;;;5050492;28;20374;-73
2022/04/09 14:52:24;;;;;;;3.95;0.77;;;;;;;;;;5050205;28;20572;-75
2022/04/09 14:54:50;;;;;;;1.85;0.30;;;;;;;;;;5050478;28;20017;-74
2022/04/09 14:57:16;;;;;;;1.27;0.20;;;;;;;;;;5050367;28;20459;-74
2022/04/09 14:59:41;;;;;;;5.30;0.32;;;;;;;;;;5050490;28;20029;-74
2022/04/09 15:02:09;;;;;;;2.33;0.30;;;;;;;;;;5050223;28;20036;-73
2022/04/09 15:04:36;;;;;;;1.98;0.30;;;;;;;;;;5050349;28;20035;-73
2022/04/09 15:07:02;;;;;;;2.55;0.32;;;;;;;;;;5032656;28;20025;-73
2022/04/09 15:09:27;;;;;;;2.13;0.30;;;;;;;;;;5050045;28;20052;-73
2022/04/09 15:11:53;;;;;;;1.45;0.40;;;;;;;;;;5032132;28;20032;-75
2022/04/09 15:14:19;;;;;;;0.93;0.30;;;;;;;;;;5050013;28;20480;-75
2022/04/09 15:16:45;;;;;;;0.77;0.20;;;;;;;;;;5050304;28;20021;-74
2022/04/09 15:19:11;;;;;;;0.45;0.20;;;;;;;;;;5050142;28;20029;-72
2022/04/09 15:21:37;;;;;;;2.05;0.30;;;;;;;;;;5049962;28;20055;-74
2022/04/09 15:24:03;;;;;;;2.10;0.20;;;;;;;;;;5049838;28;20057;-73
2022/04/09 15:26:28;;;;;;;1.67;0.40;;;;;;;;;;5049849;28;20531;-74
2022/04/09 15:28:54;;;;;;;0.43;0.28;;;;;;;;;;5049843;28;20017;-76
2022/04/09 15:31:22;;;;;;;0.60;0.22;;;;;;;;;;5049945;28;20029;-73
2022/04/09 15:33:48;;;;;;;1.23;0.40;;;;;;;;;;5050102;28;20025;-77
2022/04/09 15:36:14;;;;;;;1.00;0.20;;;;;;;;;;5048144;28;20369;-76
2022/04/09 15:38:39;;;;;;;0.70;0.20;;;;;;;;;;5049687;28;20567;-76
2022/04/09 15:41:06;;;;;;;0.63;0.30;;;;;;;;;;5050025;28;20083;-78
2022/04/09 15:43:32;;;;;;;0.20;0.20;;;;;;;;;;5049443;28;20519;-80
2022/04/09 15:45:58;;;;;;;2.42;0.35;;;;;;;;;;5049319;28;20084;-78
2022/04/09 15:48:23;;;;;;;2.22;0.40;;;;;;;;;;5049665;28;20056;-78
2022/04/09 15:50:48;;;;;;;0.75;0.28;;;;;;;;;;5050073;28;20023;-78
2022/04/09 15:53:14;;;;;;;1.27;0.30;;;;;;;;;;5049218;28;20276;-79
2022/04/09 15:55:40;;;;;;;1.60;0.22;;;;;;;;;;5049548;28;20025;-79
2022/04/09 15:58:05;;;;;;;0.52;0.30;;;;;;;;;;5049790;28;20025;-78
2022/04/09 16:00:31;;;;;;;0.47;0.30;;;;;;;;;;5049632;28;20025;-79
2022/04/09 16:02:57;;;;;;;0.57;0.30;;;;;;;;;;5049106;28;20388;-78
2022/04/09 16:05:23;;;;;;;0.50;0.20;;;;;;;;;;5031464;28;20033;-78
2022/04/09 16:07:48;;;;;;;2.67;0.30;;;;;;;;;;5049577;28;20025;-78
2022/04/09 16:10:14;;;;;;;0.52;0.30;;;;;;;;;;5048999;28;20033;-80
2022/04/09 16:12:40;;;;;;;0.30;0.25;;;;;;;;;;5049390;28;20033;-79
2022/04/09 16:15:07;;;;;;;1.10;0.38;;;;;;;;;;5049552;28;20036;-77
2022/04/09 16:17:33;;;;;;;1.75;0.32;;;;;;;;;;5049508;28;20026;-77
2022/04/09 16:19:59;;;;;;;0.43;0.30;;;;;;;;;;5049458;28;20044;-74
2022/04/09 16:22:25;;;;;;;1.75;0.30;;;;;;;;;;5049186;28;20110;-74
2022/04/09 16:24:50;;;;;;;1.55;0.32;;;;;;;;;;5049436;28;20033;-81
2022/04/09 16:27:16;;;;;;;0.98;0.30;;;;;;;;;;5049400;28;20037;-73
2022/04/09 16:29:41;;;;;;;1.27;0.40;;;;;;;;;;5049512;28;20029;-71
2022/04/09 16:32:07;;;;;;;0.80;0.20;;;;;;;;;;5050147;28;20037;-68
2022/04/09 16:34:35;;;;;;;1.90;0.43;;;;;;;;;;5052330;28;20435;-73
2022/04/09 16:37:01;;;;;;;0.52;0.30;;;;;;;;;;5033358;28;20029;-69
2022/04/09 16:39:26;;;;;;;0.30;0.28;;;;;;;;;;5032778;28;20022;-68
2022/04/09 16:41:51;;;;;;;0.88;0.30;;;;;;;;;;5033210;28;20040;-68
2022/04/09 16:44:17;;;;;;;0.65;0.30;;;;;;;;;;5050545;28;20041;-73
2022/04/09 16:46:42;;;;;;;0.75;0.30;;;;;;;;;;5052664;28;20572;-69
2022/04/09 16:49:08;;;;;;;0.70;0.32;;;;;;;;;;5053042;28;20032;-68
2022/04/09 16:51:33;;;;;;;0.90;0.40;;;;;;;;;;5034834;28;20033;-71
2022/04/09 16:53:59;;;;;;;0.40;0.20;;;;;;;;;;5051045;28;20509;-75
2022/04/09 16:56:25;;;;;;;3.10;0.88;;;;;;;;;;5050956;28;20033;-72
2022/04/09 16:58:54;;;;;;;2.75;0.52;;;;;;;;;;5051506;28;20071;-76
2022/04/09 17:01:20;;;;;;;1.95;0.30;;;;;;;;;;5052543;28;20199;-73
2022/04/09 17:03:46;;;;;;;2.15;0.50;;;;;;;;;;5052478;28;20052;-73
2022/04/09 17:06:12;;;;;;;1.15;0.40;;;;;;;;;;5045268;28;20488;-74
2022/04/09 17:08:38;;;;;;;3.17;0.60;;;;;;;;;;5051777;28;20064;-73
2022/04/09 17:11:06;;;;;;;3.03;0.55;;;;;;;;;;5032617;28;20025;-73
2022/04/09 17:13:33;;;;;;;0.73;0.35;;;;;;;;;;5036387;28;20431;-70
2022/04/09 17:15:59;;;;;;;0.50;0.30;;;;;;;;;;5038444;28;20464;-73
2022/04/09 17:18:24;;;;;;;0.30;0.30;;;;;;;;;;5050979;28;20515;-74
2022/04/09 17:20:51;;;;;;;3.15;0.70;;;;;;;;;;5052178;28;20021;-72
2022/04/09 17:23:17;;;;;;;2.63;0.43;;;;;;;;;;5038214;28;20029;-77
2022/04/09 17:25:42;;;;;;;1.88;0.80;;;;;;;;;;5032144;28;20037;-78
2022/04/09 17:28:09;;;;;;;2.22;0.50;;;;;;;;;;5038801;28;20029;-74
2022/04/09 17:30:35;;;;;;;0.80;0.50;;;;;;;;;;5050719;28;20035;-73
2022/04/09 17:33:00;;;;;;;0.55;0.30;;;;;;;;;;5051585;28;20025;-73
2022/04/09 17:35:26;;;;;;;1.50;0.43;;;;;;;;;;5049961;28;20086;-75
2022/04/09 17:37:51;;;;;;;1.38;0.75;;;;;;;;;;5033524;28;20029;-73
2022/04/09 17:40:17;;;;;;;2.65;0.50;;;;;;;;;;5051137;28;20434;-74
2022/04/09 17:42:45;;;;;;;1.08;0.50;;;;;;;;;;5033639;28;20032;-74
2022/04/09 17:45:11;;;;;;;1.05;0.50;;;;;;;;;;5051792;28;20036;-75
2022/04/09 17:47:37;;;;;;;2.03;0.80;;;;;;;;;;5051524;28;20072;-75
2022/04/09 17:50:02;;;;;;;1.55;0.55;;;;;;;;;;5033811;28;20025;-73
2022/04/09 17:52:28;;;;;;;2.35;0.50;;;;;;;;;;5048742;28;20060;-73
2022/04/09 17:54:53;;;;;;;0.57;0.43;;;;;;;;;;5051494;28;20025;-74
2022/04/09 17:57:19;;;;;;;1.30;0.73;;;;;;;;;;5050276;28;20024;-75
2022/04/09 17:59:44;;;;;;;3.55;0.95;;;;;;;;;;5050315;28;20025;-73
2022/04/09 18:02:10;;;;;;;0.93;0.57;;;;;;;;;;5051596;28;20063;-74
2022/04/09 18:04:35;;;;;;;1.17;0.52;;;;;;;;;;5051569;28;20020;-74
2022/04/09 18:07:01;;;;;;;1.48;0.60;;;;;;;;;;5051240;28;20025;-74
2022/04/09 18:09:29;;;;;;;1.40;0.50;;;;;;;;;;5050124;28;20060;-72
2022/04/09 18:11:55;;;;;;;1.15;0.45;;;;;;;;;;5050499;28;20029;-71
2022/04/09 18:14:20;;;;;;;1.25;0.60;;;;;;;;;;5049843;28;20028;-71
2022/04/09 18:16:46;;;;;;;0.60;0.45;;;;;;;;;;5051169;28;20070;-72
2022/04/09 18:19:11;;;;;;;1.58;0.80;;;;;;;;;;5051010;28;20396;-72
2022/04/09 18:21:37;;;;;;;1.23;0.80;;;;;;;;;;5050953;28;20071;-72
2022/04/09 18:24:04;;;;;;;0.80;0.60;;;;;;;;;;5050670;28;20384;-72
2022/04/09 18:26:29;;;;;;;1.00;0.40;;;;;;;;;;5050969;28;20017;-72
2022/04/09 18:28:55;;;;;;;0.98;0.60;;;;;;;;;;5051244;28;20396;-72
2022/04/09 18:31:21;;;;;;;1.15;0.75;;;;;;;;;;5051041;28;20029;-71
2022/04/09 18:33:46;;;;;;;1.52;0.68;;;;;;;;;;5050905;28;20028;-71
2022/04/09 18:36:14;;;;;;;1.30;0.50;;;;;;;;;;5051064;28;20068;-71
2022/04/09 18:38:39;;;;;;;1.77;0.98;;;;;;;;;;5050741;28;20021;-72
2022/04/09 18:41:05;;;;;;;0.75;0.63;;;;;;;;;;5050786;28;20530;-70
2022/04/09 18:43:30;;;;;;;2.25;0.63;;;;;;;;;;5050299;28;20025;-68
2022/04/09 18:45:56;;;;;;;1.13;0.68;;;;;;;;;;5050893;28;20045;-70
2022/04/09 18:48:21;;;;;;;1.88;0.73;;;;;;;;;;5050910;28;20537;-72
2022/04/09 18:50:47;;;;;;;2.65;0.80;;;;;;;;;;5050762;28;20028;-69
2022/04/09 18:53:12;;;;;;;1.40;0.60;;;;;;;;;;5049214;28;20024;-69
2022/04/09 18:55:38;;;;;;;1.45;0.80;;;;;;;;;;5049942;28;20021;-67
2022/04/09 18:58:04;;;;;;;1.38;0.70;;;;;;;;;;5050479;28;20322;-70
2022/04/09 19:00:29;;;;;;;1.02;0.60;;;;;;;;;;5050483;28;20039;-68
2022/04/09 19:02:55;;;;;;;2.13;0.70;;;;;;;;;;5050520;28;20033;-68
2022/04/09 19:05:21;;;;;;;0.88;0.40;;;;;;;;;;5050340;28;20063;-72
2022/04/09 19:07:46;;;;;;;0.57;0.57;;;;;;;;;;5050441;28;20017;-72
2022/04/09 19:10:14;;;;;;;1.58;0.60;;;;;;;;;;5050357;28;20400;-69
2022/04/09 19:12:43;;;;;;;2.80;0.80;;;;;;;;;;5050333;28;20045;-75
2022/04/09 19:15:10;;;;;;;0.57;0.32;;;;;;;;;;5049897;28;20025;-70
2022/04/09 19:17:36;;;;;;;1.45;0.60;;;;;;;;;;5050270;28;20025;-69
2022/04/09 19:20:02;;;;;;;2.45;0.70;;;;;;;;;;5050573;28;20036;-69
2022/04/09 19:22:33;;;;;;;0.80;0.50;;;;;;;;;;5050777;28;20051;-69
2022/04/09 19:24:59;;;;;;;0.80;0.47;;;;;;;;;;5050244;28;20071;-69
2022/04/09 19:27:25;;;;;;;1.40;0.50;;;;;;;;;;5050399;28;20507;-76
2022/04/09 19:29:51;;;;;;;2.25;0.40;;;;;;;;;;5050193;28;20473;-70
2022/04/09 19:32:16;;;;;;;0.60;0.40;;;;;;;;;;5050526;28;20025;-69
2022/04/09 19:34:41;;;;;;;0.90;0.55;;;;;;;;;;5050358;28;20025;-69
2022/04/09 19:37:07;;;;;;;1.35;0.50;;;;;;;;;;5050433;28;20025;-74
2022/04/09 19:39:34;;;;;;;0.93;0.40;;;;;;;;;;5050005;28;20412;-72
2022/04/09 19:42:04;;;;;;;0.63;0.35;;;;;;;;;;5050417;28;20456;-74
2022/04/09 19:44:29;;;;;;;0.98;0.40;;;;;;;;;;5051805;28;20503;-73
2022/04/09 19:46:58;;;;;;;1.38;0.50;;;;;;;;;;5051317;28;20053;-68
2022/04/09 19:49:23;;;;;;;0.55;0.35;;;;;;;;;;5050176;28;20024;-69
2022/04/09 19:51:49;;;;;;;0.77;0.50;;;;;;;;;;5049732;28;20396;-70
2022/04/09 19:54:14;;;;;;;1.13;0.50;;;;;;;;;;5049690;28;20579;-71
2022/04/09 19:56:40;;;;;;;0.82;0.50;;;;;;;;;;5049678;28;20029;-69
2022/04/09 19:59:06;;;;;;;0.85;0.55;;;;;;;;;;5049804;28;20396;-72
2022/04/09 20:01:31;;;;;;;1.50;0.50;;;;;;;;;;5049786;28;20029;-68
2022/04/09 20:03:57;;;;;;;3.85;0.60;;;;;;;;;;5031590;28;20025;-70
2022/04/09 20:06:23;;;;;;;1.35;0.50;;;;;;;;;;5049487;28;20025;-69
2022/04/09 20:08:48;;;;;;;1.80;0.50;;;;;;;;;;5052474;28;20053;-69
2022/04/09 20:11:14;;;;;;;1.27;0.45;;;;;;;;;;5053636;28;20032;-69
2022/04/09 20:13:40;;;;;;;1.20;0.47;;;;;;;;;;5053605;28;20041;-68
2022/04/09 20:16:06;;;;;;;1.00;0.30;;;;;;;;;;5053582;28;20310;-71
2022/04/09 20:18:32;;;;;;;0.43;0.30;;;;;;;;;;5053365;28;20087;-71
2022/04/09 20:20:58;;;;;;;0.43;0.30;;;;;;;;;;5053227;28;20025;-72
2022/04/09 20:23:23;;;;;;;0.95;0.50;;;;;;;;;;5053042;28;20099;-69
2022/04/09 20:25:49;;;;;;;0.30;0.30;;;;;;;;;;5053216;28;20473;-68
2022/04/09 20:28:14;;;;;;;0.90;0.32;;;;;;;;;;5053193;28;20029;-68
2022/04/09 20:30:41;;;;;;;0.75;0.50;;;;;;;;;;5053048;28;20033;-69
2022/04/09 20:33:09;;;;;;;0.65;0.40;;;;;;;;;;5053294;28;20024;-69
2022/04/09 20:35:36;;;;;;;1.83;0.35;;;;;;;;;;5053148;28;20281;-72
2022/04/09 20:38:02;;;;;;;1.20;0.43;;;;;;;;;;5053226;28;20511;-69
2022/04/09 20:40:28;;;;;;;0.98;0.40;;;;;;;;;;5052815;28;20037;-69
2022/04/09 20:42:56;;;;;;;1.00;0.40;;;;;;;;;;5053182;28;20029;-69
2022/04/09 20:45:22;;;;;;;0.38;0.28;;;;;;;;;;5052848;28;20017;-70
2022/04/09 20:47:48;;;;;;;0.75;0.30;;;;;;;;;;5053391;28;20017;-69
2022/04/09 20:50:13;;;;;;;0.70;0.30;;;;;;;;;;5052830;28;20048;-71
2022/04/09 20:52:39;;;;;;;0.57;0.32;;;;;;;;;;5052617;28;20036;-70
2022/04/09 20:55:06;;;;;;;1.08;0.50;;;;;;;;;;5052661;28;20029;-69
2022/04/09 20:57:31;;;;;;;0.65;0.45;;;;;;;;;;5052731;28;20044;-68
2022/04/09 20:59:57;;;;;;;0.47;0.30;;;;;;;;;;5052268;28;20067;-69
2022/04/09 21:02:22;;;;;;;0.40;0.38;;;;;;;;;;5052724;28;20033;-68
2022/04/09 21:04:48;;;;;;;3.40;0.50;;;;;;;;;;5052620;28;20037;-69
2022/04/09 21:07:14;;;;;;;1.15;0.40;;;;;;;;;;5052618;28;20029;-69
2022/04/09 21:09:39;;;;;;;0.43;0.32;;;;;;;;;;5052313;28;20028;-71
2022/04/09 21:12:06;;;;;;;0.85;0.40;;;;;;;;;;5052327;28;20074;-71
2022/04/09 21:14:31;;;;;;;0.93;0.32;;;;;;;;;;5052362;28;20032;-69
2022/04/09 21:17:00;;;;;;;0.75;0.50;;;;;;;;;;5052264;28;20029;-71
2022/04/09 21:19:25;;;;;;;2.05;0.70;;;;;;;;;;5051771;28;20029;-69
2022/04/09 21:21:51;;;;;;;0.75;0.40;;;;;;;;;;5052358;28;20040;-69
2022/04/09 21:24:16;;;;;;;1.00;0.40;;;;;;;;;;5052271;28;20103;-70
2022/04/09 21:26:42;;;;;;;0.70;0.40;;;;;;;;;;5034174;28;20033;-69
2022/04/09 21:29:08;;;;;;;0.70;0.45;;;;;;;;;;5052159;28;20503;-69
2022/04/09 21:31:33;;;;;;;0.68;0.30;;;;;;;;;;5051949;28;20027;-70
2022/04/09 21:34:00;;;;;;;1.33;0.40;;;;;;;;;;5051966;28;20369;-69
2022/04/09 21:36:26;;;;;;;1.27;0.60;;;;;;;;;;5051909;28;20032;-72
2022/04/09 21:38:52;;;;;;;2.00;0.45;;;;;;;;;;5051990;28;20108;-68
2022/04/09 21:41:17;;;;;;;1.00;0.43;;;;;;;;;;5051764;28;20059;-69
2022/04/09 21:43:43;;;;;;;0.93;0.50;;;;;;;;;;5051906;28;20029;-69
2022/04/09 21:46:08;;;;;;;0.75;0.35;;;;;;;;;;5051642;28;20492;-69
2022/04/09 21:48:33;;;;;;;1.23;0.40;;;;;;;;;;5051805;28;20086;-67
2022/04/09 21:50:59;;;;;;;1.42;0.50;;;;;;;;;;5051614;28;20031;-70
2022/04/09 21:53:24;;;;;;;0.85;0.40;;;;;;;;;;5051586;28;20119;-68
2022/04/09 21:55:50;;;;;;;0.77;0.40;;;;;;;;;;5052145;28;20125;-70
2022/04/09 21:58:15;;;;;;;0.82;0.40;;;;;;;;;;5052260;28;20036;-69
2022/04/09 22:01:07;;;;;;;0.95;0.50;;;;;;;;;;5051510;28;20095;-71
2022/04/09 22:03:32;;;;;;;1.80;0.50;;;;;;;;;;5046722;28;20065;-68
2022/04/09 22:05:58;;;;;;;1.00;0.60;;;;;;;;;;5051661;28;20204;-69
2022/04/09 22:08:23;;;;;;;1.15;0.50;;;;;;;;;;5051320;28;20051;-68
2022/04/09 22:10:49;;;;;;;0.90;0.40;;;;;;;;;;5051216;28;20021;-68
2022/04/09 22:13:15;;;;;;;0.70;0.50;;;;;;;;;;5052012;28;20099;-68
2022/04/09 22:15:41;;;;;;;0.60;0.40;;;;;;;;;;5051271;28;20029;-69
2022/04/09 22:18:08;;;;;;;1.73;0.50;;;;;;;;;;5051295;28;20055;-71
2022/04/09 22:20:36;;;;;;;0.77;0.55;;;;;;;;;;5051094;28;20116;-69
2022/04/09 22:23:03;;;;;;;1.15;0.60;;;;;;;;;;5051014;28;20086;-67
2022/04/09 22:25:29;;;;;;;1.25;0.47;;;;;;;;;;5051118;28;20060;-68
2022/04/09 22:27:54;;;;;;;0.85;0.50;;;;;;;;;;5051212;28;20056;-69
2022/04/09 22:30:20;;;;;;;1.15;0.60;;;;;;;;;;5050042;28;20071;-69
2022/04/09 22:32:45;;;;;;;1.23;0.50;;;;;;;;;;5051143;28;20030;-69
2022/04/09 22:35:12;;;;;;;2.00;0.57;;;;;;;;;;5051280;28;20079;-69
2022/04/09 22:37:38;;;;;;;1.27;0.60;;;;;;;;;;5050714;28;20033;-69
2022/04/09 22:40:08;;;;;;;0.60;0.50;;;;;;;;;;5050605;28;20495;-69
2022/04/09 22:42:34;;;;;;;1.35;0.77;;;;;;;;;;5050727;28;20370;-69
2022/04/09 22:45:02;;;;;;;1.08;0.50;;;;;;;;;;5051246;28;20029;-70
2022/04/09 22:47:32;;;;;;;0.90;0.60;;;;;;;;;;5050746;28;20538;-69
2022/04/09 22:49:59;;;;;;;1.48;0.68;;;;;;;;;;5050861;28;20028;-69
2022/04/09 22:52:28;;;;;;;1.08;0.50;;;;;;;;;;5050688;28;20068;-70
2022/04/09 22:54:54;;;;;;;2.88;0.60;;;;;;;;;;5050804;28;20025;-70
2022/04/09 22:57:20;;;;;;;2.25;0.70;;;;;;;;;;5050432;28;20036;-71
2022/04/09 22:59:50;;;;;;;1.05;0.60;;;;;;;;;;5050670;28;20075;-70
2022/04/09 23:02:16;;;;;;;1.35;0.63;;;;;;;;;;5050621;28;20287;-70
2022/04/09 23:04:42;;;;;;;1.73;0.60;;;;;;;;;;5050526;28;20248;-69
2022/04/09 23:07:08;;;;;;;1.23;0.70;;;;;;;;;;5050633;28;20233;-69
2022/04/09 23:09:37;;;;;;;1.00;0.50;;;;;;;;;;5050242;28;20033;-68
2022/04/09 23:12:04;;;;;;;3.03;0.50;;;;;;;;;;5049909;28;20029;-69
2022/04/09 23:14:30;;;;;;;2.35;0.70;;;;;;;;;;5050164;28;20055;-69
2022/04/09 23:16:55;;;;;;;1.83;0.70;;;;;;;;;;5050424;28;20112;-69
2022/04/09 23:19:21;;;;;;;1.65;0.80;;;;;;;;;;5050349;28;20119;-69
2022/04/09 23:21:46;;;;;;;3.25;0.80;;;;;;;;;;5050200;28;20381;-69
2022/04/09 23:24:12;;;;;;;1.10;0.70;;;;;;;;;;5050148;28;20477;-70
2022/04/09 23:26:37;;;;;;;1.48;0.70;;;;;;;;;;5050228;28;20032;-69
2022/04/09 23:29:03;;;;;;;1.42;0.70;;;;;;;;;;5050127;28;20103;-69
2022/04/09 23:31:29;;;;;;;2.72;0.80;;;;;;;;;;5049856;28;20036;-70
2022/04/09 23:33:54;;;;;;;1.00;0.65;;;;;;;;;;5049978;28;20029;-70
2022/04/09 23:36:19;;;;;;;2.08;0.70;;;;;;;;;;5050006;28;20476;-69
2022/04/09 23:38:46;;;;;;;1.95;0.60;;;;;;;;;;5049906;28;20044;-69
2022/04/09 23:41:12;;;;;;;3.08;0.70;;;;;;;;;;5049669;28;20025;-69
2022/04/09 23:43:38;;;;;;;1.63;0.70;;;;;;;;;;5050162;28;20031;-69
2022/04/09 23:46:03;;;;;;;1.42;0.70;;;;;;;;;;5049640;28;20084;-69
2022/04/09 23:48:28;;;;;;;1.27;0.70;;;;;;;;;;5049987;28;20039;-71
2022/04/09 23:50:54;;;;;;;0.90;0.60;;;;;;;;;;5049716;28;20051;-69
2022/04/09 23:53:19;;;;;;;1.52;0.60;;;;;;;;;;5049606;28;20028;-70
2022/04/09 23:55:46;;;;;;;1.20;0.65;;;;;;;;;;5049869;28;20028;-68
2022/04/09 23:58:13;;;;;;;1.38;0.60;;;;;;;;;;5050163;28;20031;-69
